Time;durP1;ratioP1;P1;durP2;ratioP2;P2;SDS_P1;SDS_P2;PMS_P1;PMS_P2;Temp;Humidity;BMP_temperature;BMP_pressure;BME280_temperature;BME280_humidity;BME280_pressure;Samples;Min_cycle;Max_cycle;Signal;HPM_P1;HPM_P2
2022/10/22 00:01:15;;;;;;;6.13;3.58;;;;;;;15.59;100.00;100031.97;5032722;28;20198;-73
2022/10/22 00:03:41;;;;;;;4.95;3.40;;;;;;;15.57;100.00;100029.34;5034839;28;20209;-74
2022/10/22 00:06:08;;;;;;;6.95;4.13;;;;;;;15.52;100.00;100027.97;5035442;28;20218;-74
2022/10/22 00:08:36;;;;;;;9.77;3.65;;;;;;;15.49;100.00;100020.91;5035248;28;20222;-72
2022/10/22 00:11:09;;;;;;;8.07;4.32;;;;;;;15.51;100.00;100015.34;5034555;28;20208;-72
2022/10/22 00:13:36;;;;;;;7.70;4.10;;;;;;;15.50;100.00;100010.91;5032854;28;20201;-74
2022/10/22 00:16:02;;;;;;;9.20;4.00;;;;;;;15.52;100.00;100006.25;5033292;28;20202;-74
2022/10/22 00:18:29;;;;;;;6.80;4.03;;;;;;;15.55;100.00;100006.03;5032630;28;20600;-75
2022/10/22 00:20:55;;;;;;;4.95;3.50;;;;;;;15.57;100.00;100009.50;5032530;28;20200;-73
2022/10/22 00:23:22;;;;;;;4.82;3.20;;;;;;;15.54;100.00;100009.72;5032947;28;20212;-73
2022/10/22 00:25:50;;;;;;;7.53;4.22;;;;;;;15.63;100.00;100012.63;5032653;28;20213;-74
2022/10/22 00:28:16;;;;;;;7.65;4.20;;;;;;;15.56;100.00;99997.78;5032966;28;20236;-73
2022/10/22 00:30:43;;;;;;;10.35;3.85;;;;;;;15.59;100.00;100002.97;5032411;28;20288;-75
2022/10/22 00:33:09;;;;;;;7.60;4.40;;;;;;;15.57;100.00;100013.06;5033195;28;20212;-74
2022/10/22 00:35:36;;;;;;;6.80;3.70;;;;;;;15.58;100.00;100012.09;5033391;28;20589;-73
2022/10/22 00:38:02;;;;;;;7.10;4.72;;;;;;;15.59;100.00;100002.97;5033479;28;20661;-74
2022/10/22 00:40:29;;;;;;;9.23;4.35;;;;;;;15.53;100.00;99994.41;5033010;28;20209;-75
2022/10/22 00:42:57;;;;;;;5.82;3.70;;;;;;;15.48;100.00;99997.44;5033182;28;20205;-75
2022/10/22 00:45:25;;;;;;;8.27;4.13;;;;;;;15.47;100.00;100000.28;5033515;28;20205;-74
2022/10/22 00:47:55;;;;;;;8.70;4.63;;;;;;;15.42;100.00;99992.47;5032332;28;20241;-74
2022/10/22 00:50:26;;;;;;;6.70;3.78;;;;;;;15.46;100.00;99993.97;5032430;28;20232;-72
2022/10/22 00:52:54;;;;;;;6.75;3.83;;;;;;;15.39;100.00;99989.97;5032688;28;20186;-74
2022/10/22 00:55:23;;;;;;;4.32;3.65;;;;;;;15.46;100.00;100004.84;5033617;28;20221;-73
2022/10/22 00:57:50;;;;;;;7.88;4.07;;;;;;;15.45;100.00;99994.13;5034332;28;20229;-73
2022/10/22 01:00:18;;;;;;;7.63;4.32;;;;;;;15.41;100.00;100007.88;5034419;28;20208;-73
2022/10/22 01:02:45;;;;;;;5.80;3.90;;;;;;;15.42;100.00;100006.91;5034958;28;20212;-73
2022/10/22 01:05:11;;;;;;;7.93;3.67;;;;;;;15.43;100.00;99991.50;5037108;28;20206;-75
2022/10/22 01:07:46;;;;;;;6.63;4.68;;;;;;;15.42;100.00;100000.59;5035258;28;20237;-73
2022/10/22 01:10:26;;;;;;;5.80;4.05;;;;;;;15.45;100.00;99991.41;5025008;28;20190;-74
2022/10/22 01:13:02;;;;;;;10.70;4.25;;;;;;;15.42;100.00;99990.63;5036278;28;20648;-75
2022/10/22 01:15:37;;;;;;;6.15;3.60;;;;;;;15.38;100.00;99996.41;5036464;28;20208;-73
2022/10/22 01:18:07;;;;;;;7.22;3.70;;;;;;;15.42;100.00;100000.59;5035789;28;20226;-75
2022/10/22 01:21:01;;;;;;;9.95;4.47;;;;;;;15.37;100.00;100009.06;5035554;28;20202;-73
2022/10/22 01:23:55;;;;;;;7.32;3.70;;;;;;;15.31;100.00;100003.22;5036090;28;20718;-76
2022/10/22 01:26:32;;;;;;;6.95;3.67;;;;;;;15.29;100.00;100008.78;4955623;29;20717;-73
2022/10/22 01:29:06;;;;;;;9.27;3.90;;;;;;;15.33;100.00;100004.88;4955401;28;20663;-74
2022/10/22 01:31:38;;;;;;;7.15;3.35;;;;;;;15.26;100.00;99998.13;4956857;29;20682;-72
2022/10/22 01:34:08;;;;;;;7.57;4.35;;;;;;;15.26;100.00;99999.97;4955411;29;20205;-75
2022/10/22 01:36:37;;;;;;;6.95;3.78;;;;;;;15.26;100.00;99999.97;4955407;29;20208;-75
2022/10/22 01:39:05;;;;;;;9.23;3.97;;;;;;;15.28;100.00;100009.72;4955035;29;20225;-73
2022/10/22 01:41:32;;;;;;;7.32;3.90;;;;;;;15.28;100.00;100017.00;4970278;29;20224;-73
2022/10/22 01:43:58;;;;;;;5.15;3.20;;;;;;;15.33;100.00;100013.00;4976188;29;20228;-75
2022/10/22 01:46:28;;;;;;;4.63;2.72;;;;;;;15.30;100.00;100013.19;4977057;29;20236;-74
2022/10/22 01:49:15;;;;;;;13.13;3.50;;;;;;;15.29;100.00;100024.19;4976659;29;20231;-73
2022/10/22 01:51:55;;;;;;;7.15;3.65;;;;;;;15.33;100.00;100031.09;4976628;29;20256;-72
2022/10/22 01:54:31;;;;;;;4.38;2.67;;;;;;;15.36;100.00;100047.19;4976149;29;20189;-72
2022/10/22 01:57:07;;;;;;;3.83;2.60;;;;;;;15.37;100.00;100047.06;4975670;29;20204;-73
2022/10/22 01:59:46;;;;;;;4.15;3.30;;;;;;;15.33;100.00;100051.00;4968639;29;20194;-73
2022/10/22 02:02:25;;;;;;;4.78;2.83;;;;;;;15.23;100.00;100049.88;4959038;28;20189;-73
2022/10/22 02:04:57;;;;;;;4.55;2.50;;;;;;;15.12;100.00;100041.63;5034910;28;20655;-73
2022/10/22 02:07:28;;;;;;;6.07;2.80;;;;;;;15.05;100.00;100045.75;5035366;28;20209;-73
2022/10/22 02:09:56;;;;;;;6.15;3.00;;;;;;;15.01;100.00;100042.38;5035260;28;20198;-73
2022/10/22 02:12:24;;;;;;;6.00;2.53;;;;;;;14.98;100.00;100035.31;5035009;28;20198;-73
2022/10/22 02:14:52;;;;;;;4.63;2.60;;;;;;;14.95;100.00;100037.41;5034892;28;20197;-73
2022/10/22 02:17:22;;;;;;;4.43;2.30;;;;;;;14.92;100.00;100037.59;5034466;28;20198;-73
2022/10/22 02:19:54;;;;;;;3.90;2.83;;;;;;;14.89;100.00;100027.84;5034696;28;20590;-74
2022/10/22 02:22:21;;;;;;;3.03;2.22;;;;;;;14.91;100.00;100034.03;5034841;28;20186;-74
2022/10/22 02:24:49;;;;;;;10.02;3.47;;;;;;;14.93;100.00;100040.22;5034418;28;20206;-72
2022/10/22 02:27:21;;;;;;;4.70;2.45;;;;;;;14.84;100.00;100048.97;5037403;28;20241;-73
2022/10/22 02:29:55;;;;;;;6.88;2.72;;;;;;;14.86;100.00;100062.44;5039738;28;20187;-74
2022/10/22 02:32:28;;;;;;;3.22;2.10;;;;;;;14.86;100.00;100062.44;5037696;28;20204;-74
2022/10/22 02:34:56;;;;;;;6.15;2.67;;;;;;;14.84;100.00;100056.25;5036840;28;20250;-72
2022/10/22 02:37:25;;;;;;;3.45;2.60;;;;;;;14.79;100.00;100053.84;5042029;28;20202;-74
2022/10/22 02:39:52;;;;;;;8.40;2.40;;;;;;;14.83;100.00;100055.34;5037322;28;20202;-73
2022/10/22 02:42:19;;;;;;;3.20;2.10;;;;;;;14.83;100.00;100058.06;5036601;28;20209;-72
2022/10/22 02:44:45;;;;;;;4.55;2.38;;;;;;;14.77;100.00;100053.94;5036825;28;20202;-74
2022/10/22 02:47:12;;;;;;;5.47;2.50;;;;;;;14.85;100.00;100066.09;5037015;28;20229;-74
2022/10/22 02:49:39;;;;;;;4.78;2.13;;;;;;;14.79;100.00;100057.44;5036003;28;20216;-75
2022/10/22 02:52:06;;;;;;;2.97;2.00;;;;;;;14.75;100.00;100050.47;5036672;28;20217;-72
2022/10/22 02:54:33;;;;;;;4.32;2.47;;;;;;;14.77;100.00;100048.53;5036448;28;20206;-73
2022/10/22 02:56:59;;;;;;;2.85;1.83;;;;;;;14.76;100.00;100025.09;5035930;28;20202;-74
2022/10/22 02:59:26;;;;;;;3.85;2.40;;;;;;;14.70;100.00;100027.38;5034622;28;20221;-73
2022/10/22 03:01:52;;;;;;;4.05;1.90;;;;;;;14.73;100.00;100036.16;5036858;28;20205;-73
2022/10/22 03:04:19;;;;;;;3.13;1.88;;;;;;;14.78;100.00;100039.41;5038056;28;20204;-73
2022/10/22 03:06:47;;;;;;;5.72;2.45;;;;;;;14.67;100.00;100044.69;5035886;28;20226;-75
2022/10/22 03:09:16;;;;;;;3.67;2.00;;;;;;;14.71;100.00;100048.06;5045994;28;20217;-72
2022/10/22 03:11:42;;;;;;;2.70;2.20;;;;;;;14.71;100.00;100051.66;5048828;28;20202;-73
2022/10/22 03:14:09;;;;;;;5.90;2.22;;;;;;;14.79;100.00;100060.13;5048565;28;20235;-73
2022/10/22 03:16:35;;;;;;;3.00;2.20;;;;;;;14.80;100.00;100058.28;5037285;28;20204;-73
2022/10/22 03:19:02;;;;;;;9.05;2.45;;;;;;;14.69;100.00;100056.31;5035442;28;20226;-74
2022/10/22 03:21:34;;;;;;;3.15;2.15;;;;;;;14.75;100.00;100053.19;5035326;28;20232;-73
2022/10/22 03:24:04;;;;;;;2.72;2.00;;;;;;;14.64;100.00;100050.34;5035730;28;20576;-73
2022/10/22 03:26:31;;;;;;;3.67;2.00;;;;;;;14.63;100.00;100053.13;5033325;28;20222;-73
2022/10/22 03:28:59;;;;;;;6.47;2.25;;;;;;;14.66;100.00;100064.66;5034360;28;20594;-74
2022/10/22 03:31:26;;;;;;;4.22;2.20;;;;;;;14.72;100.00;100072.38;5034933;28;20217;-73
2022/10/22 03:33:52;;;;;;;3.13;1.90;;;;;;;14.75;100.00;100077.56;5034230;28;20209;-73
2022/10/22 03:36:19;;;;;;;5.07;2.15;;;;;;;14.71;100.00;100084.19;5033697;28;20205;-72
2022/10/22 03:38:46;;;;;;;6.40;2.05;;;;;;;14.74;100.00;100091.22;5036110;28;20232;-73
2022/10/22 03:41:14;;;;;;;2.60;1.55;;;;;;;14.74;100.00;100086.69;5034663;28;20489;-73
2022/10/22 03:43:40;;;;;;;4.22;2.08;;;;;;;14.74;100.00;100094.84;5032759;28;20265;-74
2022/10/22 03:46:07;;;;;;;7.45;1.88;;;;;;;14.76;100.00;100106.41;5033295;28;20229;-73
2022/10/22 03:48:34;;;;;;;6.47;1.70;;;;;;;14.77;100.00;100108.16;5032284;28;20218;-75
2022/10/22 03:51:00;;;;;;;3.65;1.80;;;;;;;14.70;100.00;100109.56;5033303;28;20206;-74
2022/10/22 03:53:27;;;;;;;3.50;1.98;;;;;;;14.76;100.00;100101.00;5033756;28;20212;-73
2022/10/22 03:55:53;;;;;;;3.30;2.10;;;;;;;14.78;100.00;100101.75;5034817;28;20209;-74
2022/10/22 03:58:21;;;;;;;3.70;2.30;;;;;;;14.74;100.00;100116.53;5033756;28;20309;-75
2022/10/22 04:00:47;;;;;;;4.18;1.85;;;;;;;14.77;100.00;100127.13;5033741;28;20291;-74
2022/10/22 04:03:14;;;;;;;4.45;1.70;;;;;;;14.74;100.00;100118.34;5033300;28;20209;-74
2022/10/22 04:05:41;;;;;;;2.90;1.88;;;;;;;14.72;100.00;100126.59;5033536;28;20296;-74
2022/10/22 04:08:07;;;;;;;4.30;1.88;;;;;;;14.79;100.00;100130.63;5032469;28;20226;-73
2022/10/22 04:10:33;;;;;;;3.50;1.85;;;;;;;14.73;100.00;100131.03;5032738;28;20213;-74
2022/10/22 04:13:00;;;;;;;6.25;2.45;;;;;;;14.72;100.00;100136.53;5033311;28;20206;-74
2022/10/22 04:15:28;;;;;;;2.83;1.85;;;;;;;14.67;100.00;100144.13;5033232;28;20198;-75
2022/10/22 04:17:55;;;;;;;4.88;2.33;;;;;;;14.71;100.00;100143.81;5032744;28;20217;-75
2022/10/22 04:20:21;;;;;;;8.15;1.70;;;;;;;14.72;100.00;100156.41;5032933;28;20209;-76
2022/10/22 04:22:48;;;;;;;5.80;2.22;;;;;;;14.73;100.00;100151.84;5033289;28;20205;-75
2022/10/22 04:25:14;;;;;;;3.08;1.63;;;;;;;14.74;100.00;100161.69;5033872;28;20198;-74
2022/10/22 04:27:41;;;;;;;6.53;2.67;;;;;;;14.73;100.00;100166.25;5033602;28;20229;-73
2022/10/22 04:30:09;;;;;;;4.53;2.13;;;;;;;14.82;100.00;100166.63;5032627;28;20226;-73
2022/10/22 04:32:36;;;;;;;5.18;1.98;;;;;;;14.74;100.00;100162.59;5035057;28;20197;-74
2022/10/22 04:35:04;;;;;;;3.00;1.73;;;;;;;14.83;100.00;100163.81;5034102;28;20202;-73
2022/10/22 04:37:31;;;;;;;4.63;2.10;;;;;;;14.73;100.00;100165.41;5040321;28;20218;-73
2022/10/22 04:39:58;;;;;;;2.50;1.52;;;;;;;14.74;100.00;100165.31;5038092;28;20225;-72
2022/10/22 04:42:24;;;;;;;3.15;1.85;;;;;;;14.78;100.00;100165.97;5034769;28;20193;-74
2022/10/22 04:44:51;;;;;;;4.60;1.90;;;;;;;14.67;100.00;100168.50;5033996;28;20202;-74
2022/10/22 04:47:17;;;;;;;3.00;1.77;;;;;;;14.63;100.00;100165.16;5034150;28;20228;-74
2022/10/22 04:49:45;;;;;;;2.85;2.20;;;;;;;14.70;100.00;100166.47;5084352;23;20221;-75
2022/10/22 04:52:12;;;;;;;7.10;1.90;;;;;;;14.65;100.00;100156.91;5063407;28;20680;-74
2022/10/22 04:54:38;;;;;;;4.63;1.90;;;;;;;14.67;100.00;100166.66;5056754;28;20205;-73
2022/10/22 04:57:05;;;;;;;5.50;2.20;;;;;;;14.68;100.00;100164.84;5055096;28;20277;-73
2022/10/22 04:59:32;;;;;;;2.65;1.75;;;;;;;14.72;100.00;100169.06;5054622;28;20587;-74
2022/10/22 05:01:58;;;;;;;3.90;1.90;;;;;;;14.67;100.00;100163.94;5053739;28;20687;-75
2022/10/22 05:04:25;;;;;;;3.40;1.40;;;;;;;14.66;100.00;100162.22;5054096;28;20198;-74
2022/10/22 05:06:53;;;;;;;2.95;1.95;;;;;;;14.69;100.00;100163.84;5053784;28;20201;-74
2022/10/22 05:09:20;;;;;;;2.70;1.90;;;;;;;14.67;100.00;100163.09;5053520;28;20312;-74
2022/10/22 05:11:49;;;;;;;3.08;1.98;;;;;;;14.66;100.00;100156.81;5052346;28;20201;-73
2022/10/22 05:14:18;;;;;;;3.05;2.00;;;;;;;14.71;100.00;100168.19;5054183;28;20209;-74
2022/10/22 05:16:46;;;;;;;6.13;2.20;;;;;;;14.68;100.00;100165.72;5053445;28;20275;-75
2022/10/22 05:19:16;;;;;;;5.13;2.10;;;;;;;14.70;100.00;100166.47;5054638;28;20213;-74
2022/10/22 05:21:43;;;;;;;6.40;2.10;;;;;;;14.68;100.00;100171.13;5060173;28;20193;-74
2022/10/22 05:24:11;;;;;;;8.15;2.08;;;;;;;14.66;100.00;100175.78;5060324;28;20185;-74
2022/10/22 05:26:38;;;;;;;7.78;2.30;;;;;;;14.64;100.00;100176.84;5057096;28;20572;-74
2022/10/22 05:29:04;;;;;;;3.83;2.17;;;;;;;14.56;100.00;100180.94;5055289;28;20229;-74
2022/10/22 05:31:31;;;;;;;4.88;2.38;;;;;;;14.57;100.00;100190.78;5054851;28;20197;-74
2022/10/22 05:33:57;;;;;;;5.45;2.80;;;;;;;14.56;100.00;100182.75;5054939;28;20205;-74
2022/10/22 05:36:24;;;;;;;6.28;2.05;;;;;;;14.64;100.00;100172.28;5055318;28;20205;-73
2022/10/22 05:38:51;;;;;;;3.25;1.90;;;;;;;14.59;100.00;100190.72;5084286;28;20219;-73
2022/10/22 05:41:20;;;;;;;8.35;2.50;;;;;;;14.59;100.00;100185.28;5079059;28;20200;-74
2022/10/22 05:43:47;;;;;;;4.05;1.88;;;;;;;14.57;100.00;100188.09;5065610;28;20186;-73
2022/10/22 05:46:16;;;;;;;3.53;1.75;;;;;;;14.59;100.00;100190.72;5053692;28;20223;-74
2022/10/22 05:48:43;;;;;;;4.57;2.10;;;;;;;14.62;100.00;100190.50;5054423;28;20228;-72
2022/10/22 05:51:11;;;;;;;2.95;1.80;;;;;;;14.62;100.00;100200.47;5055959;28;20610;-73
2022/10/22 05:53:39;;;;;;;5.38;2.10;;;;;;;14.64;100.00;100203.97;5054752;28;20198;-73
2022/10/22 05:56:08;;;;;;;2.60;1.80;;;;;;;14.67;100.00;100211.88;5055638;28;20255;-72
2022/10/22 05:58:36;;;;;;;2.15;1.60;;;;;;;14.66;100.00;100211.00;5060752;28;20217;-73
2022/10/22 06:01:03;;;;;;;5.13;1.83;;;;;;;14.71;100.00;100206.16;5062887;28;20200;-73
2022/10/22 06:03:30;;;;;;;3.25;1.48;;;;;;;14.69;100.00;100207.22;5058636;28;20686;-73
2022/10/22 06:05:59;;;;;;;3.75;1.90;;;;;;;14.75;100.00;100218.53;5056404;28;20274;-73
2022/10/22 06:08:26;;;;;;;3.55;2.00;;;;;;;14.65;100.00;100211.97;5056358;28;20458;-74
2022/10/22 06:10:52;;;;;;;3.53;1.77;;;;;;;14.60;100.00;100224.94;5055514;28;20215;-75
2022/10/22 06:13:19;;;;;;;3.47;1.90;;;;;;;14.51;100.00;100214.69;5053329;28;20236;-73
2022/10/22 06:15:47;;;;;;;3.13;2.15;;;;;;;14.45;100.00;100221.38;5053531;28;20201;-74
2022/10/22 06:18:13;;;;;;;3.95;2.38;;;;;;;14.43;100.00;100217.91;5056793;28;20217;-74
2022/10/22 06:20:42;;;;;;;3.20;2.40;;;;;;;14.44;100.00;100218.75;5054928;28;20196;-74
2022/10/22 06:23:08;;;;;;;5.57;2.30;;;;;;;14.36;100.00;100225.53;5055177;28;20256;-75
2022/10/22 06:25:35;;;;;;;2.90;1.90;;;;;;;14.31;100.00;100224.09;5054738;28;20204;-77
2022/10/22 06:28:01;;;;;;;4.00;1.92;;;;;;;14.27;100.00;100218.00;5054035;28;20706;-74
2022/10/22 06:30:28;;;;;;;6.25;2.65;;;;;;;14.23;100.00;100224.59;5055800;28;20201;-74
2022/10/22 06:32:56;;;;;;;4.60;2.42;;;;;;;14.23;100.00;100234.56;5055646;28;20288;-73
2022/10/22 06:35:22;;;;;;;5.22;2.40;;;;;;;14.26;100.00;100240.63;5057972;28;20201;-74
2022/10/22 06:37:49;;;;;;;6.00;2.25;;;;;;;14.31;100.00;100252.06;5076888;28;20553;-74
2022/10/22 06:40:17;;;;;;;3.72;2.03;;;;;;;14.27;100.00;100261.34;5084894;28;20197;-73
2022/10/22 06:42:44;;;;;;;3.40;2.20;;;;;;;14.21;100.00;100258.16;5085102;28;20205;-74
2022/10/22 06:45:11;;;;;;;5.38;2.58;;;;;;;14.16;100.00;100269.28;5080440;28;20216;-73
2022/10/22 06:47:37;;;;;;;5.55;2.22;;;;;;;14.14;100.00;100263.09;5075881;28;20260;-73
2022/10/22 06:50:06;;;;;;;9.05;2.35;;;;;;;14.11;100.00;100263.25;5074806;28;20193;-76
2022/10/22 06:52:32;;;;;;;8.38;2.08;;;;;;;14.13;100.00;100267.63;5076238;28;20266;-73
2022/10/22 06:54:59;;;;;;;3.97;1.95;;;;;;;14.05;100.00;100272.63;5076107;28;20197;-74
2022/10/22 06:57:25;;;;;;;6.50;1.95;;;;;;;14.08;100.00;100274.28;5073522;28;20190;-73
2022/10/22 06:59:52;;;;;;;3.25;1.95;;;;;;;14.14;100.00;100280.19;5072964;28;20221;-73
2022/10/22 07:02:18;;;;;;;6.40;2.00;;;;;;;14.18;100.00;100284.47;5076938;28;20185;-74
2022/10/22 07:04:45;;;;;;;6.55;2.30;;;;;;;14.45;100.00;100289.13;5077146;28;20245;-74
2022/10/22 07:07:13;;;;;;;3.45;1.70;;;;;;;14.63;100.00;100303.38;5062346;28;20192;-74
2022/10/22 07:09:40;;;;;;;4.63;1.88;;;;;;;14.81;100.00;100301.28;5054393;28;20217;-74
2022/10/22 07:12:07;;;;;;;6.53;2.00;;;;;;;14.99;100.00;100307.38;5054006;28;20201;-74
2022/10/22 07:14:33;;;;;;;3.92;1.80;;;;;;;15.26;100.00;100298.38;5053566;28;20197;-74
2022/10/22 07:17:01;;;;;;;3.08;1.55;;;;;;;15.42;100.00;100300.00;5047749;28;20281;-72
2022/10/22 07:19:27;;;;;;;13.27;10.05;;;;;;;15.86;100.00;100311.53;5050031;28;20221;-70
2022/10/22 07:21:54;;;;;;;2.90;1.60;;;;;;;16.29;100.00;100294.94;5055433;28;20198;-76
2022/10/22 07:24:22;;;;;;;4.15;2.05;;;;;;;16.24;100.00;100295.28;5053627;28;20263;-75
2022/10/22 07:26:48;;;;;;;3.15;2.22;;;;;;;16.68;100.00;100306.66;5053608;28;20197;-74
2022/10/22 07:29:15;;;;;;;7.35;2.22;;;;;;;16.87;100.00;100290.78;5053312;28;20229;-75
2022/10/22 07:31:42;;;;;;;3.35;2.00;;;;;;;17.50;100.00;100288.81;5053379;28;20205;-76
2022/10/22 07:34:08;;;;;;;2.70;1.20;;;;;;;17.73;100.00;100286.19;5053679;28;20635;-75
2022/10/22 07:36:35;;;;;;;6.18;1.67;;;;;;;18.20;100.00;100294.38;5054127;28;20201;-74
2022/10/22 07:39:02;;;;;;;4.07;1.45;;;;;;;17.85;100.00;100290.69;5053675;28;20621;-76
2022/10/22 07:41:31;;;;;;;3.67;1.48;;;;;;;18.12;100.00;100293.13;5053648;28;20673;-74
2022/10/22 07:43:58;;;;;;;4.32;1.15;;;;;;;18.21;100.00;100294.25;5043932;28;20312;-75
2022/10/22 07:46:25;;;;;;;3.15;1.30;;;;;;;17.90;100.00;100301.22;5054135;28;20590;-75
2022/10/22 07:48:52;;;;;;;5.13;1.42;;;;;;;18.58;100.00;100301.34;5054067;28;20646;-75
2022/10/22 07:51:18;;;;;;;2.00;0.82;;;;;;;18.63;100.00;100301.84;5058808;28;20209;-76
2022/10/22 07:53:45;;;;;;;3.67;1.50;;;;;;;18.74;100.00;100307.28;5056590;28;20207;-76
2022/10/22 07:56:16;;;;;;;3.17;1.00;;;;;;;18.96;100.00;100306.47;5056591;28;20454;-75
2022/10/22 07:58:44;;;;;;;2.97;1.00;;;;;;;18.94;100.00;100313.91;5058988;28;20550;-75
2022/10/22 08:01:10;;;;;;;3.40;1.47;;;;;;;18.96;100.00;100311.91;5055421;28;20196;-76
2022/10/22 08:03:37;;;;;;;2.00;1.07;;;;;;;18.81;100.00;100322.19;5056820;28;20443;-74
2022/10/22 08:06:05;;;;;;;3.75;1.63;;;;;;;18.70;100.00;100328.53;5057428;28;20515;-76
2022/10/22 08:08:32;;;;;;;1.90;1.37;;;;;;;18.63;100.00;100321.81;5057231;28;20243;-75
2022/10/22 08:11:01;;;;;;;3.63;1.08;;;;;;;18.48;100.00;100325.78;5058398;28;20451;-75
2022/10/22 08:13:29;;;;;;;2.00;1.03;;;;;;;18.74;100.00;100323.66;5056603;28;20219;-74
2022/10/22 08:15:57;;;;;;;1.57;0.77;;;;;;;19.16;100.00;100318.47;5058766;28;20447;-76
2022/10/22 08:18:24;;;;;;;4.07;1.17;;;;;;;19.07;100.00;100327.41;5053585;28;20997;-75
2022/10/22 08:20:51;;;;;;;3.50;1.20;;;;;;;19.17;100.00;100333.84;5054330;28;20450;-76
2022/10/22 08:23:18;;;;;;;3.70;1.00;;;;;;;19.27;100.00;100326.63;5054363;28;20530;-76
2022/10/22 08:25:45;;;;;;;1.30;0.80;;;;;;;19.58;100.00;100329.50;5054232;28;20471;-75
2022/10/22 08:28:11;;;;;;;2.00;1.00;;;;;;;19.86;100.00;100332.69;5052142;28;20487;-74
2022/10/22 08:30:39;;;;;;;35.27;30.03;;;;;;;19.74;100.00;100334.56;5052058;28;20448;-76
2022/10/22 08:33:07;;;;;;;46.70;34.80;;;;;;;19.70;100.00;100342.19;5051570;28;20961;-74
2022/10/22 08:35:33;;;;;;;3.93;1.73;;;;;;;19.96;100.00;100337.22;5045386;28;20436;-73
2022/10/22 08:38:00;;;;;;;4.07;1.57;;;;;;;20.24;100.00;100340.31;5031453;28;20470;-73
2022/10/22 08:40:32;;;;;;;2.67;1.03;;;;;;;19.94;100.00;100346.53;5031552;28;20445;-73
2022/10/22 08:43:19;;;;;;;4.03;1.37;;;;;;;19.84;100.00;100351.09;5035213;28;20427;-70
2022/10/22 08:45:56;;;;;;;2.80;0.90;;;;;;;20.24;100.00;100353.09;5052012;28;20792;-73
2022/10/22 08:48:41;;;;;;;2.20;0.93;;;;;;;21.05;100.00;100354.16;5050298;28;20487;-72
2022/10/22 08:51:13;;;;;;;2.63;0.90;;;;;;;20.51;100.00;100367.13;5051442;28;20581;-73
2022/10/22 08:53:48;;;;;;;2.83;0.80;;;;;;;21.32;100.00;100361.72;5051926;28;20442;-72
2022/10/22 08:56:15;;;;;;;1.80;0.70;;;;;;;20.96;100.00;100366.81;5051323;28;20481;-72
2022/10/22 08:58:49;;;;;;;2.73;0.90;;;;;;;21.34;99.31;100359.72;5051549;28;20836;-71
2022/10/22 09:01:22;;;;;;;2.03;0.70;;;;;;;20.60;100.00;100354.53;5052387;28;20423;-71
2022/10/22 09:03:54;;;;;;;1.80;0.80;;;;;;;21.05;100.00;100365.09;5053112;28;20502;-73
2022/10/22 09:06:24;;;;;;;2.17;0.90;;;;;;;21.52;98.71;100359.09;5052727;28;20432;-73
2022/10/22 09:08:51;;;;;;;1.93;0.67;;;;;;;21.43;98.93;100350.69;5053669;28;20480;-73
2022/10/22 09:11:25;;;;;;;1.57;0.67;;;;;;;21.85;92.69;100355.97;5052892;28;20443;-72
2022/10/22 09:13:53;;;;;;;1.80;0.70;;;;;;;22.19;90.23;100347.28;5051791;28;20456;-73
2022/10/22 09:16:26;;;;;;;1.73;0.73;;;;;;;22.28;88.31;100368.38;5052602;28;20460;-73
2022/10/22 09:19:05;;;;;;;3.93;0.80;;;;;;;22.37;89.43;100363.91;5052542;28;20486;-73
2022/10/22 09:21:43;;;;;;;2.03;0.77;;;;;;;22.02;87.12;100357.09;5052098;28;20478;-74
2022/10/22 09:24:13;;;;;;;2.43;1.00;;;;;;;21.67;91.54;100360.41;5053712;28;20443;-75
2022/10/22 09:26:41;;;;;;;2.07;0.70;;;;;;;22.13;88.40;100368.94;5055427;28;20443;-76
2022/10/22 09:29:17;;;;;;;1.40;0.60;;;;;;;22.16;86.59;100375.03;5056722;28;20483;-74
2022/10/22 09:31:43;;;;;;;4.57;0.90;;;;;;;21.60;90.67;100370.22;5056993;28;20492;-73
2022/10/22 09:34:14;;;;;;;1.63;0.73;;;;;;;21.32;93.84;100372.69;5060013;28;20436;-73
2022/10/22 09:36:41;;;;;;;2.80;0.80;;;;;;;21.21;93.75;100364.59;5058432;28;20443;-72
2022/10/22 09:39:22;;;;;;;2.50;0.80;;;;;;;21.43;93.24;100374.50;5053297;28;20451;-72
2022/10/22 09:41:49;;;;;;;1.43;0.60;;;;;;;21.80;91.46;100377.47;5061818;28;20431;-73
2022/10/22 09:44:17;;;;;;;3.03;1.93;;;;;;;22.15;88.85;100372.41;5073588;28;20530;-73
2022/10/22 09:46:44;;;;;;;5.17;2.37;;;;;;;22.56;85.01;100384.09;5070172;28;20809;-75
2022/10/22 09:49:15;;;;;;;5.63;0.90;;;;;;;21.62;90.93;100381.91;5058930;28;20485;-74
2022/10/22 09:51:49;;;;;;;1.20;0.50;;;;;;;21.64;92.22;100390.84;5059174;28;20448;-72
2022/10/22 09:54:19;;;;;;;1.70;0.70;;;;;;;21.61;95.53;100385.63;5057422;28;20434;-73
2022/10/22 09:56:56;;;;;;;2.77;0.83;;;;;;;21.17;100.00;100396.03;5057456;28;20439;-72
2022/10/22 09:59:29;;;;;;;3.90;0.97;;;;;;;22.41;88.87;100386.41;5056911;28;20513;-73
2022/10/22 10:01:58;;;;;;;2.80;0.90;;;;;;;23.45;81.39;100384.50;5056663;28;20440;-74
2022/10/22 10:04:29;;;;;;;1.50;0.90;;;;;;;22.44;84.53;100388.88;5057707;28;20497;-75
2022/10/22 10:06:57;;;;;;;1.90;0.70;;;;;;;22.85;82.71;100384.00;5060015;28;20466;-75
2022/10/22 10:09:26;;;;;;;1.90;0.70;;;;;;;22.61;84.47;100393.63;5058957;28;20847;-74
2022/10/22 10:12:04;;;;;;;1.47;0.70;;;;;;;23.24;79.52;100386.63;5060260;28;20443;-73
2022/10/22 10:14:40;;;;;;;2.57;0.70;;;;;;;23.38;80.43;100386.16;5056444;28;20436;-74
2022/10/22 10:17:18;;;;;;;2.10;0.87;;;;;;;23.78;77.94;100395.03;5054917;28;20442;-73
2022/10/22 10:20:08;;;;;;;2.50;1.00;;;;;;;23.71;75.55;100392.00;5056396;28;20467;-75
2022/10/22 10:22:47;;;;;;;3.30;0.90;;;;;;;23.82;74.34;100389.06;5056499;28;20451;-72
2022/10/22 10:25:41;;;;;;;4.60;1.80;;;;;;;23.49;75.99;100394.19;5055982;28;20902;-73
2022/10/22 10:28:46;;;;;;;1.50;1.00;;;;;;;23.44;79.43;100401.13;5053851;28;20478;-74
2022/10/22 10:31:20;;;;;;;3.70;1.20;;;;;;;23.53;78.35;100384.59;5053443;28;20530;-75
2022/10/22 10:33:56;;;;;;;1.90;0.60;;;;;;;23.78;76.78;100393.16;5052876;28;21002;-76
2022/10/22 10:36:31;;;;;;;1.40;0.70;;;;;;;23.75;75.53;100384.38;5053588;28;20431;-73
2022/10/22 10:39:02;;;;;;;2.70;0.80;;;;;;;22.83;84.51;100392.38;5042679;28;20460;-73
2022/10/22 10:41:43;;;;;;;1.90;0.67;;;;;;;22.77;85.06;100394.88;5033551;28;20914;-73
2022/10/22 10:44:28;;;;;;;2.23;0.80;;;;;;;23.76;80.11;100389.69;5046525;28;20793;-74
2022/10/22 10:47:07;;;;;;;2.10;1.20;;;;;;;24.80;69.36;100390.97;5053299;28;20428;-74
2022/10/22 10:49:36;;;;;;;4.90;1.27;;;;;;;23.68;74.73;100397.81;5052859;28;20483;-74
2022/10/22 10:52:13;;;;;;;4.30;0.93;;;;;;;22.38;84.18;100398.53;5053074;28;20435;-74
2022/10/22 10:54:49;;;;;;;2.10;1.10;;;;;;;22.70;84.28;100402.81;5053054;28;20440;-73
2022/10/22 10:57:24;;;;;;;1.57;0.80;;;;;;;23.36;79.68;100404.66;5053523;28;20426;-73
2022/10/22 11:00:02;;;;;;;2.87;0.77;;;;;;;22.85;84.55;100392.25;5053953;28;20881;-73
2022/10/22 11:03:04;;;;;;;1.20;0.70;;;;;;;23.22;82.54;100388.66;5051571;28;20458;-75
2022/10/22 11:05:37;;;;;;;4.13;0.87;;;;;;;22.89;83.56;100396.44;5010884;28;20503;-73
2022/10/22 11:08:13;;;;;;;1.67;0.77;;;;;;;22.86;85.87;100388.47;5034031;22;20453;-69
2022/10/22 11:10:45;;;;;;;4.63;0.90;;;;;;;24.15;77.67;100381.16;5034395;28;20514;-71
2022/10/22 11:13:19;;;;;;;3.03;0.83;;;;;;;24.18;77.32;100378.06;5035050;28;20475;-70
2022/10/22 11:15:50;;;;;;;3.23;1.17;;;;;;;23.50;79.46;100384.91;5036532;28;20424;-72
2022/10/22 11:18:24;;;;;;;4.23;1.10;;;;;;;23.00;80.72;100378.94;5036659;28;20457;-71
2022/10/22 11:20:57;;;;;;;2.60;0.80;;;;;;;24.29;72.38;100376.97;5035342;28;20819;-72
2022/10/22 11:23:32;;;;;;;3.43;1.10;;;;;;;25.49;63.05;100378.94;5035282;28;20915;-72
2022/10/22 11:26:00;;;;;;;2.37;0.80;;;;;;;24.82;64.90;100380.66;5036361;28;20439;-72
2022/10/22 11:28:33;;;;;;;2.67;0.67;;;;;;;24.02;68.04;100383.44;5037350;28;20510;-73
2022/10/22 11:31:03;;;;;;;2.30;0.90;;;;;;;22.36;82.92;100383.25;5038159;28;20468;-74